sensor_id;sensor_type;location;lat;lon;timestamp;pressure;altitude;pressure_sealevel;temperature;humidity
60417;BME280;46263;44.726;10.396;2023-05-23T00:01:20;100267.38;;;21.61;60.25
60417;BME280;46263;44.726;10.396;2023-05-23T00:03:47;100263.19;;;21.52;60.36
60417;BME280;46263;44.726;10.396;2023-05-23T00:06:13;100265.72;;;21.58;60.23
60417;BME280;46263;44.726;10.396;2023-05-23T00:08:38;100261.38;;;21.57;59.94
60417;BME280;46263;44.726;10.396;2023-05-23T00:11:04;100258.09;;;21.51;60.25
60417;BME280;46263;44.726;10.396;2023-05-23T00:13:30;100264.69;;;21.63;60.21
60417;BME280;46263;44.726;10.396;2023-05-23T00:15:59;100268.56;;;21.58;60.20
60417;BME280;46263;44.726;10.396;2023-05-23T00:18:24;100260.19;;;21.60;60.27
60417;BME280;46263;44.726;10.396;2023-05-23T00:20:49;100258.25;;;21.53;60.06
60417;BME280;46263;44.726;10.396;2023-05-23T00:23:16;100258.69;;;21.59;60.16
60417;BME280;46263;44.726;10.396;2023-05-23T00:25:45;100264.38;;;21.59;60.00
60417;BME280;46263;44.726;10.396;2023-05-23T00:28:17;100254.22;;;21.56;59.97
60417;BME280;46263;44.726;10.396;2023-05-23T00:30:42;100255.09;;;21.67;59.74
60417;BME280;46263;44.726;10.396;2023-05-23T00:33:08;100251.19;;;21.63;59.92
60417;BME280;46263;44.726;10.396;2023-05-23T00:35:33;100250.28;;;21.70;59.88
60417;BME280;46263;44.726;10.396;2023-05-23T00:37:59;100256.13;;;21.72;59.52
60417;BME280;46263;44.726;10.396;2023-05-23T00:40:26;100252.81;;;21.75;59.10
60417;BME280;46263;44.726;10.396;2023-05-23T00:42:51;100258.19;;;21.81;59.14
60417;BME280;46263;44.726;10.396;2023-05-23T00:45:17;100253.25;;;21.81;59.31
60417;BME280;46263;44.726;10.396;2023-05-23T00:47:43;100247.88;;;21.76;59.04
60417;BME280;46263;44.726;10.396;2023-05-23T00:50:13;100256.41;;;21.76;59.50
60417;BME280;46263;44.726;10.396;2023-05-23T00:52:40;100258.94;;;21.81;59.10
60417;BME280;46263;44.726;10.396;2023-05-23T00:55:06;100258.03;;;21.79;58.83
60417;BME280;46263;44.726;10.396;2023-05-23T00:57:34;100252.19;;;21.86;58.95
60417;BME280;46263;44.726;10.396;2023-05-23T01:00:04;100243.91;;;21.90;58.51
60417;BME280;46263;44.726;10.396;2023-05-23T01:02:33;100252.19;;;21.86;58.45
60417;BME280;46263;44.726;10.396;2023-05-23T01:05:02;100252.19;;;21.86;58.46
60417;BME280;46263;44.726;10.396;2023-05-23T01:07:27;100251.94;;;21.73;58.28
60417;BME280;46263;44.726;10.396;2023-05-23T01:09:53;100252.38;;;21.69;58.77
60417;BME280;46263;44.726;10.396;2023-05-23T01:15:04;100259.28;;;21.67;58.73
60417;BME280;46263;44.726;10.396;2023-05-23T01:17:51;100264.97;;;21.67;59.39
60417;BME280;46263;44.726;10.396;2023-05-23T01:20:25;100268.38;;;21.74;58.96
60417;BME280;46263;44.726;10.396;2023-05-23T01:28:02;100254.16;;;21.74;58.34
60417;BME280;46263;44.726;10.396;2023-05-23T01:30:31;100251.31;;;21.74;58.21
60417;BME280;46263;44.726;10.396;2023-05-23T01:32:58;100254.31;;;21.76;58.01
60417;BME280;46263;44.726;10.396;2023-05-23T01:35:26;100252.25;;;21.67;58.09
60417;BME280;46263;44.726;10.396;2023-05-23T01:37:55;100257.19;;;21.58;58.37
60417;BME280;46263;44.726;10.396;2023-05-23T01:40:21;100251.81;;;21.62;58.50
60417;BME280;46263;44.726;10.396;2023-05-23T01:42:47;100246.56;;;21.67;58.67
60417;BME280;46263;44.726;10.396;2023-05-23T01:45:14;100254.78;;;21.73;58.44
60417;BME280;46263;44.726;10.396;2023-05-23T01:47:40;100249.59;;;21.60;58.45
60417;BME280;46263;44.726;10.396;2023-05-23T01:50:07;100253.31;;;21.44;58.97
60417;BME280;46263;44.726;10.396;2023-05-23T01:52:34;100247.19;;;21.38;59.06
60417;BME280;46263;44.726;10.396;2023-05-23T01:55:02;100247.50;;;21.32;59.33
60417;BME280;46263;44.726;10.396;2023-05-23T01:59:58;100250.81;;;21.19;59.83
60417;BME280;46263;44.726;10.396;2023-05-23T02:02:24;100252.44;;;21.22;59.94
60417;BME280;46263;44.726;10.396;2023-05-23T02:04:49;100244.34;;;21.28;59.68
60417;BME280;46263;44.726;10.396;2023-05-23T02:07:15;100243.75;;;21.30;59.35
60417;BME280;46263;44.726;10.396;2023-05-23T02:09:40;100244.03;;;21.34;59.42
60417;BME280;46263;44.726;10.396;2023-05-23T02:12:06;100254.06;;;21.35;59.23
60417;BME280;46263;44.726;10.396;2023-05-23T02:14:32;100242.25;;;21.29;59.53
60417;BME280;46263;44.726;10.396;2023-05-23T02:16:57;100244.81;;;21.25;59.31
60417;BME280;46263;44.726;10.396;2023-05-23T02:19:24;100241.84;;;21.23;59.36
60417;BME280;46263;44.726;10.396;2023-05-23T02:21:51;100244.09;;;21.15;59.89
60417;BME280;46263;44.726;10.396;2023-05-23T02:24:16;100244.06;;;21.05;60.02
60417;BME280;46263;44.726;10.396;2023-05-23T02:26:41;100243.94;;;21.03;60.20
60417;BME280;46263;44.726;10.396;2023-05-23T02:29:07;100243.34;;;21.05;60.01
60417;BME280;46263;44.726;10.396;2023-05-23T02:31:33;100242.72;;;21.06;59.88
60417;BME280;46263;44.726;10.396;2023-05-23T02:33:58;100237.78;;;20.97;60.22
60417;BME280;46263;44.726;10.396;2023-05-23T02:36:24;100239.47;;;20.91;60.30
60417;BME280;46263;44.726;10.396;2023-05-23T02:38:49;100244.84;;;21.06;60.15
60417;BME280;46263;44.726;10.396;2023-05-23T02:41:14;100236.31;;;21.06;60.07
60417;BME280;46263;44.726;10.396;2023-05-23T02:43:40;100240.50;;;21.05;60.10
60417;BME280;46263;44.726;10.396;2023-05-23T02:46:05;100239.31;;;21.08;59.77
60417;BME280;46263;44.726;10.396;2023-05-23T02:48:30;100240.19;;;21.01;60.13
60417;BME280;46263;44.726;10.396;2023-05-23T02:50:56;100238.72;;;21.00;60.43
60417;BME280;46263;44.726;10.396;2023-05-23T02:53:21;100237.78;;;20.97;60.14
60417;BME280;46263;44.726;10.396;2023-05-23T02:55:47;100238.38;;;21.05;59.86
60417;BME280;46263;44.726;10.396;2023-05-23T02:58:12;100242.00;;;21.06;59.75
60417;BME280;46263;44.726;10.396;2023-05-23T03:00:38;100243.03;;;21.01;60.02
60417;BME280;46263;44.726;10.396;2023-05-23T03:03:03;100239.91;;;20.97;60.13
60417;BME280;46263;44.726;10.396;2023-05-23T03:05:29;100231.06;;;21.12;59.65
60417;BME280;46263;44.726;10.396;2023-05-23T03:07:54;100233.31;;;21.04;59.69
60417;BME280;46263;44.726;10.396;2023-05-23T03:10:20;100227.47;;;21.02;59.54
60417;BME280;46263;44.726;10.396;2023-05-23T03:12:46;100233.75;;;21.00;59.48
60417;BME280;46263;44.726;10.396;2023-05-23T03:15:11;100231.06;;;21.02;59.79
60417;BME280;46263;44.726;10.396;2023-05-23T03:17:37;100229.41;;;21.09;59.63
60417;BME280;46263;44.726;10.396;2023-05-23T03:20:02;100233.31;;;21.04;59.68
60417;BME280;46263;44.726;10.396;2023-05-23T03:22:29;100224.03;;;20.94;59.69
60417;BME280;46263;44.726;10.396;2023-05-23T03:24:54;100225.97;;;20.91;59.74
60417;BME280;46263;44.726;10.396;2023-05-23T03:27:20;100225.38;;;21.02;59.62
60417;BME280;46263;44.726;10.396;2023-05-23T03:29:45;100228.81;;;21.01;59.90
60417;BME280;46263;44.726;10.396;2023-05-23T03:32:12;100219.25;;;21.06;59.72
60417;BME280;46263;44.726;10.396;2023-05-23T03:34:37;100227.47;;;20.92;60.05
60417;BME280;46263;44.726;10.396;2023-05-23T03:37:03;100231.66;;;20.91;59.99
60417;BME280;46263;44.726;10.396;2023-05-23T03:39:29;100224.94;;;20.87;60.19
60417;BME280;46263;44.726;10.396;2023-05-23T03:41:55;100231.06;;;20.93;59.94
60417;BME280;46263;44.726;10.396;2023-05-23T03:44:20;100229.13;;;20.86;60.21
60417;BME280;46263;44.726;10.396;2023-05-23T03:46:45;100227.63;;;20.85;60.28
60417;BME280;46263;44.726;10.396;2023-05-23T03:49:11;100224.78;;;20.85;60.23
60417;BME280;46263;44.726;10.396;2023-05-23T03:51:36;100227.19;;;20.79;60.46
60417;BME280;46263;44.726;10.396;2023-05-23T03:54:02;100232.25;;;20.81;60.46
60417;BME280;46263;44.726;10.396;2023-05-23T03:56:27;100234.50;;;20.82;60.40
60417;BME280;46263;44.726;10.396;2023-05-23T03:58:52;100231.19;;;20.67;60.98
60417;BME280;46263;44.726;10.396;2023-05-23T04:01:18;100229.38;;;20.71;60.65
60417;BME280;46263;44.726;10.396;2023-05-23T04:03:43;100237.47;;;20.75;60.78
60417;BME280;46263;44.726;10.396;2023-05-23T04:06:09;100240.19;;;20.82;60.68
60417;BME280;46263;44.726;10.396;2023-05-23T04:08:34;100233.56;;;20.70;60.88
60417;BME280;46263;44.726;10.396;2023-05-23T04:11:00;100238.97;;;20.66;61.07
60417;BME280;46263;44.726;10.396;2023-05-23T04:13:26;100237.75;;;20.69;60.83
60417;BME280;46263;44.726;10.396;2023-05-23T04:15:52;100236.25;;;20.68;61.18
60417;BME280;46263;44.726;10.396;2023-05-23T04:18:20;100238.81;;;20.64;61.04
60417;BME280;46263;44.726;10.396;2023-05-23T04:20:46;100239.25;;;20.70;61.04
60417;BME280;46263;44.726;10.396;2023-05-23T04:23:12;100242.25;;;20.72;60.98
60417;BME280;46263;44.726;10.396;2023-05-23T04:25:37;100236.47;;;20.80;60.85
60417;BME280;46263;44.726;10.396;2023-05-23T04:28:04;100241.06;;;20.75;61.26
60417;BME280;46263;44.726;10.396;2023-05-23T04:30:29;100248.56;;;20.80;61.05
60417;BME280;46263;44.726;10.396;2023-05-23T04:32:55;100241.38;;;20.79;61.21
60417;BME280;46263;44.726;10.396;2023-05-23T04:35:22;100245.88;;;20.82;61.18
60417;BME280;46263;44.726;10.396;2023-05-23T04:37:48;100243.91;;;20.75;61.30
60417;BME280;46263;44.726;10.396;2023-05-23T04:40:13;100239.88;;;20.78;61.33
60417;BME280;46263;44.726;10.396;2023-05-23T04:42:39;100249.31;;;20.81;61.49
60417;BME280;46263;44.726;10.396;2023-05-23T04:45:07;100246.44;;;20.71;61.72
60417;BME280;46263;44.726;10.396;2023-05-23T04:47:33;100249.44;;;20.73;61.96
60417;BME280;46263;44.726;10.396;2023-05-23T04:49:59;100239.88;;;20.78;61.81
60417;BME280;46263;44.726;10.396;2023-05-23T04:52:25;100248.72;;;20.82;61.88
60417;BME280;46263;44.726;10.396;2023-05-23T04:54:53;100250.94;;;20.93;61.72
60417;BME280;46263;44.726;10.396;2023-05-23T04:57:20;100247.38;;;21.02;61.54
60417;BME280;46263;44.726;10.396;2023-05-23T04:59:46;100245.13;;;21.00;61.79
60417;BME280;46263;44.726;10.396;2023-05-23T05:02:11;100247.69;;;21.06;61.72
60417;BME280;46263;44.726;10.396;2023-05-23T05:04:37;100247.97;;;21.10;61.80
60417;BME280;46263;44.726;10.396;2023-05-23T05:07:02;100253.06;;;21.11;61.73
60417;BME280;46263;44.726;10.396;2023-05-23T05:09:28;100253.94;;;21.23;61.64
60417;BME280;46263;44.726;10.396;2023-05-23T05:11:54;100249.59;;;21.32;61.80
60417;BME280;46263;44.726;10.396;2023-05-23T05:14:19;100256.91;;;21.35;61.65
60417;BME280;46263;44.726;10.396;2023-05-23T05:16:45;100252.56;;;21.43;61.57
60417;BME280;46263;44.726;10.396;2023-05-23T05:19:11;100247.63;;;21.44;61.51
60417;BME280;46263;44.726;10.396;2023-05-23T05:21:37;100249.28;;;21.56;61.43
60417;BME280;46263;44.726;10.396;2023-05-23T05:24:02;100257.66;;;21.64;61.65
60417;BME280;46263;44.726;10.396;2023-05-23T05:26:28;100253.59;;;21.67;61.47
60417;BME280;46263;44.726;10.396;2023-05-23T05:28:53;100255.84;;;21.68;61.81
60417;BME280;46263;44.726;10.396;2023-05-23T05:31:19;100256.31;;;21.65;61.92
60417;BME280;46263;44.726;10.396;2023-05-23T05:33:45;100252.81;;;21.75;62.07
60417;BME280;46263;44.726;10.396;2023-05-23T05:36:10;100255.97;;;21.79;61.81
60417;BME280;46263;44.726;10.396;2023-05-23T05:38:36;100248.00;;;21.87;61.74
60417;BME280;46263;44.726;10.396;2023-05-23T05:41:02;100255.31;;;21.90;61.81
60417;BME280;46263;44.726;10.396;2023-05-23T05:43:27;100253.03;;;21.98;61.86
60417;BME280;46263;44.726;10.396;2023-05-23T05:45:52;100246.66;;;21.88;61.95
60417;BME280;46263;44.726;10.396;2023-05-23T05:48:18;100253.94;;;22.01;61.67
60417;BME280;46263;44.726;10.396;2023-05-23T05:50:43;100243.44;;;22.03;61.70
60417;BME280;46263;44.726;10.396;2023-05-23T05:53:13;100253.31;;;22.02;62.08
60417;BME280;46263;44.726;10.396;2023-05-23T05:55:38;100254.50;;;22.09;62.01
60417;BME280;46263;44.726;10.396;2023-05-23T05:58:03;100252.25;;;22.07;62.05
60417;BME280;46263;44.726;10.396;2023-05-23T06:00:29;100256.16;;;22.02;62.57
60417;BME280;46263;44.726;10.396;2023-05-23T06:02:54;100251.31;;;22.14;62.33
60417;BME280;46263;44.726;10.396;2023-05-23T06:05:21;100249.22;;;22.15;62.37
60417;BME280;46263;44.726;10.396;2023-05-23T06:07:48;100250.66;;;22.25;62.42
60417;BME280;46263;44.726;10.396;2023-05-23T06:10:14;100253.22;;;22.31;62.44
60417;BME280;46263;44.726;10.396;2023-05-23T06:12:39;100259.34;;;22.27;62.79
60417;BME280;46263;44.726;10.396;2023-05-23T06:15:06;100254.38;;;22.37;62.65
60417;BME280;46263;44.726;10.396;2023-05-23T06:17:31;100246.41;;;22.45;62.24
60417;BME280;46263;44.726;10.396;2023-05-23T06:19:57;100250.16;;;22.38;62.46
60417;BME280;46263;44.726;10.396;2023-05-23T06:22:22;100252.75;;;22.55;61.96
60417;BME280;46263;44.726;10.396;2023-05-23T06:24:48;100247.59;;;22.63;62.15
60417;BME280;46263;44.726;10.396;2023-05-23T06:27:13;100249.72;;;22.62;62.98
60417;BME280;46263;44.726;10.396;2023-05-23T06:29:39;100255.34;;;22.72;62.64
60417;BME280;46263;44.726;10.396;2023-05-23T06:32:05;100254.38;;;22.79;62.79
60417;BME280;46263;44.726;10.396;2023-05-23T06:34:30;100262.13;;;22.88;62.85
60417;BME280;46263;44.726;10.396;2023-05-23T06:36:56;100255.56;;;22.85;62.94
60417;BME280;46263;44.726;10.396;2023-05-23T06:39:21;100256.72;;;22.92;62.50
60417;BME280;46263;44.726;10.396;2023-05-23T06:41:47;100249.66;;;22.93;62.96
60417;BME280;46263;44.726;10.396;2023-05-23T06:44:13;100251.00;;;22.92;63.18
60417;BME280;46263;44.726;10.396;2023-05-23T06:46:38;100250.53;;;22.95;63.80
60417;BME280;46263;44.726;10.396;2023-05-23T06:49:04;100250.91;;;23.01;63.46
60417;BME280;46263;44.726;10.396;2023-05-23T06:51:29;100261.88;;;23.05;63.09
60417;BME280;46263;44.726;10.396;2023-05-23T06:53:55;100252.69;;;23.06;62.13
60417;BME280;46263;44.726;10.396;2023-05-23T06:56:24;100250.75;;;23.09;61.29
60417;BME280;46263;44.726;10.396;2023-05-23T06:58:50;100254.63;;;23.13;61.02
60417;BME280;46263;44.726;10.396;2023-05-23T07:01:15;100252.88;;;23.20;61.77
60417;BME280;46263;44.726;10.396;2023-05-23T07:03:41;100257.09;;;23.19;60.60
60417;BME280;46263;44.726;10.396;2023-05-23T07:06:08;100258.09;;;23.23;60.66
60417;BME280;46263;44.726;10.396;2023-05-23T07:08:34;100259.75;;;23.26;61.13
60417;BME280;46263;44.726;10.396;2023-05-23T07:11:00;100263.47;;;23.29;60.26
60417;BME280;46263;44.726;10.396;2023-05-23T07:13:26;100265.25;;;23.33;59.84
60417;BME280;46263;44.726;10.396;2023-05-23T07:15:51;100253.81;;;23.33;60.03
60417;BME280;46263;44.726;10.396;2023-05-23T07:18:17;100261.00;;;23.34;59.12
60417;BME280;46263;44.726;10.396;2023-05-23T07:20:42;100258.28;;;23.36;59.40
60417;BME280;46263;44.726;10.396;2023-05-23T07:23:07;100264.50;;;23.44;58.49
60417;BME280;46263;44.726;10.396;2023-05-23T07:25:33;100267.84;;;23.41;58.31
60417;BME280;46263;44.726;10.396;2023-05-23T07:27:58;100264.50;;;23.44;58.52
60417;BME280;46263;44.726;10.396;2023-05-23T07:30:24;100269.97;;;23.40;57.02
60417;BME280;46263;44.726;10.396;2023-05-23T07:32:50;100270.22;;;23.44;56.98
60417;BME280;46263;44.726;10.396;2023-05-23T07:35:17;100276.19;;;23.48;57.04
60417;BME280;46263;44.726;10.396;2023-05-23T07:37:42;100280.81;;;23.53;56.53
60417;BME280;46263;44.726;10.396;2023-05-23T07:40:08;100275.22;;;23.55;56.37
60417;BME280;46263;44.726;10.396;2023-05-23T07:42:34;100272.25;;;23.53;56.10
60417;BME280;46263;44.726;10.396;2023-05-23T07:45:00;100273.72;;;23.54;56.24
60417;BME280;46263;44.726;10.396;2023-05-23T07:47:26;100273.38;;;23.60;55.43
60417;BME280;46263;44.726;10.396;2023-05-23T07:49:52;100260.72;;;23.63;55.63
60417;BME280;46263;44.726;10.396;2023-05-23T07:52:17;100260.25;;;23.66;55.77
60417;BME280;46263;44.726;10.396;2023-05-23T07:54:43;100261.13;;;23.69;55.31
60417;BME280;46263;44.726;10.396;2023-05-23T07:57:09;100255.91;;;23.65;55.41
60417;BME280;46263;44.726;10.396;2023-05-23T07:59:35;100257.41;;;23.66;56.18
60417;BME280;46263;44.726;10.396;2023-05-23T08:02:01;100258.25;;;23.69;56.25
60417;BME280;46263;44.726;10.396;2023-05-23T08:04:27;100249.22;;;23.72;57.14
60417;BME280;46263;44.726;10.396;2023-05-23T08:06:53;100249.75;;;23.80;56.01
60417;BME280;46263;44.726;10.396;2023-05-23T08:09:20;100246.53;;;23.86;55.57
60417;BME280;46263;44.726;10.396;2023-05-23T08:11:45;100243.19;;;23.89;55.42
60417;BME280;46263;44.726;10.396;2023-05-23T08:14:10;100245.03;;;23.85;55.68
60417;BME280;46263;44.726;10.396;2023-05-23T08:16:36;100242.56;;;23.91;55.99
60417;BME280;46263;44.726;10.396;2023-05-23T08:19:02;100243.28;;;23.91;55.21
60417;BME280;46263;44.726;10.396;2023-05-23T08:21:27;100240.44;;;23.91;55.26
60417;BME280;46263;44.726;10.396;2023-05-23T08:23:53;100245.19;;;23.98;55.61
60417;BME280;46263;44.726;10.396;2023-05-23T08:26:18;100241.81;;;24.02;56.13
60417;BME280;46263;44.726;10.396;2023-05-23T08:28:45;100242.31;;;23.98;54.84
60417;BME280;46263;44.726;10.396;2023-05-23T08:31:10;100247.78;;;24.06;55.56
60417;BME280;46263;44.726;10.396;2023-05-23T08:33:36;100255.47;;;24.03;54.19
60417;BME280;46263;44.726;10.396;2023-05-23T08:36:01;100250.00;;;24.07;53.69
60417;BME280;46263;44.726;10.396;2023-05-23T08:38:26;100251.63;;;24.10;54.03
60417;BME280;46263;44.726;10.396;2023-05-23T08:40:53;100242.44;;;24.12;54.82
60417;BME280;46263;44.726;10.396;2023-05-23T08:43:20;100250.25;;;24.11;54.42
60417;BME280;46263;44.726;10.396;2023-05-23T08:45:48;100243.56;;;24.18;53.94
60417;BME280;46263;44.726;10.396;2023-05-23T08:48:18;100252.75;;;24.28;54.33
60417;BME280;46263;44.726;10.396;2023-05-23T08:50:45;100256.84;;;24.36;54.71
60417;BME280;46263;44.726;10.396;2023-05-23T08:53:14;100263.06;;;24.33;54.41
60417;BME280;46263;44.726;10.396;2023-05-23T08:55:45;100253.75;;;24.32;52.47
60417;BME280;46263;44.726;10.396;2023-05-23T08:58:13;100253.75;;;24.32;53.17
60417;BME280;46263;44.726;10.396;2023-05-23T09:00:41;100258.69;;;24.32;51.76
60417;BME280;46263;44.726;10.396;2023-05-23T09:03:07;100253.13;;;24.34;53.19
60417;BME280;46263;44.726;10.396;2023-05-23T09:05:33;100264.19;;;24.51;52.96
60417;BME280;46263;44.726;10.396;2023-05-23T09:07:58;100250.75;;;24.53;52.51
60417;BME280;46263;44.726;10.396;2023-05-23T09:10:24;100254.72;;;24.60;53.15
60417;BME280;46263;44.726;10.396;2023-05-23T09:12:49;100250.50;;;24.61;52.97
60417;BME280;46263;44.726;10.396;2023-05-23T09:15:15;100252.50;;;24.58;53.12
60417;BME280;46263;44.726;10.396;2023-05-23T09:17:41;100259.22;;;24.63;53.61
60417;BME280;46263;44.726;10.396;2023-05-23T09:20:12;100252.09;;;24.64;53.36
60417;BME280;46263;44.726;10.396;2023-05-23T09:22:39;100248.00;;;24.67;53.23
60417;BME280;46263;44.726;10.396;2023-05-23T09:25:05;100243.44;;;24.62;53.10
60417;BME280;46263;44.726;10.396;2023-05-23T09:27:32;100247.84;;;24.76;53.13
60417;BME280;46263;44.726;10.396;2023-05-23T09:30:04;100239.69;;;24.71;53.73
60417;BME280;46263;44.726;10.396;2023-05-23T09:32:30;100244.47;;;24.80;53.74
60417;BME280;46263;44.726;10.396;2023-05-23T09:35:01;100245.25;;;24.80;53.45
60417;BME280;46263;44.726;10.396;2023-05-23T09:37:31;100238.28;;;24.83;53.50
60417;BME280;46263;44.726;10.396;2023-05-23T09:42:46;100236.88;;;24.84;53.54
60417;BME280;46263;44.726;10.396;2023-05-23T09:45:13;100237.88;;;24.89;53.66
60417;BME280;46263;44.726;10.396;2023-05-23T09:47:49;100233.41;;;24.86;54.08
60417;BME280;46263;44.726;10.396;2023-05-23T09:50:19;100235.00;;;24.89;54.32
60417;BME280;46263;44.726;10.396;2023-05-23T09:52:45;100239.25;;;24.88;54.33
60417;BME280;46263;44.726;10.396;2023-05-23T09:55:11;100227.41;;;24.93;54.25
60417;BME280;46263;44.726;10.396;2023-05-23T09:57:40;100232.63;;;24.96;55.00
60417;BME280;46263;44.726;10.396;2023-05-23T10:00:07;100235.84;;;25.02;54.87
60417;BME280;46263;44.726;10.396;2023-05-23T10:05:46;100236.06;;;25.06;52.98
60417;BME280;46263;44.726;10.396;2023-05-23T10:08:18;100239.94;;;24.99;52.65
60417;BME280;46263;44.726;10.396;2023-05-23T10:13:26;100225.25;;;25.05;52.01
60417;BME280;46263;44.726;10.396;2023-05-23T10:15:56;100227.00;;;24.98;52.59
60417;BME280;46263;44.726;10.396;2023-05-23T10:18:25;100227.47;;;25.06;52.67
60417;BME280;46263;44.726;10.396;2023-05-23T10:20:56;100231.72;;;25.05;51.51
60417;BME280;46263;44.726;10.396;2023-05-23T10:23:28;100230.72;;;25.12;51.57
60417;BME280;46263;44.726;10.396;2023-05-23T10:25:54;100221.53;;;25.14;51.90
60417;BME280;46263;44.726;10.396;2023-05-23T10:28:20;100229.19;;;25.23;51.69
60417;BME280;46263;44.726;10.396;2023-05-23T10:30:46;100215.84;;;25.27;51.82
60417;BME280;46263;44.726;10.396;2023-05-23T10:33:13;100216.72;;;25.30;51.78
60417;BME280;46263;44.726;10.396;2023-05-23T10:43:33;100202.47;;;25.43;51.88
60417;BME280;46263;44.726;10.396;2023-05-23T10:46:01;100209.66;;;25.44;52.23
60417;BME280;46263;44.726;10.396;2023-05-23T10:48:34;100203.94;;;25.44;52.60
60417;BME280;46263;44.726;10.396;2023-05-23T10:53:31;100205.53;;;25.47;52.41
60417;BME280;46263;44.726;10.396;2023-05-23T10:55:56;100204.16;;;25.48;52.07
60417;BME280;46263;44.726;10.396;2023-05-23T10:58:22;100202.78;;;25.49;49.44
60417;BME280;46263;44.726;10.396;2023-05-23T11:01:20;100198.22;;;25.58;49.83
60417;BME280;46263;44.726;10.396;2023-05-23T11:06:40;100190.84;;;25.66;49.81
60417;BME280;46263;44.726;10.396;2023-05-23T11:09:12;100186.59;;;25.67;48.61
60417;BME280;46263;44.726;10.396;2023-05-23T11:14:30;100186.81;;;25.71;43.02
60417;BME280;46263;44.726;10.396;2023-05-23T11:19:36;100182.09;;;25.76;46.04
60417;BME280;46263;44.726;10.396;2023-05-23T11:22:02;100177.09;;;25.76;45.96
60417;BME280;46263;44.726;10.396;2023-05-23T11:24:53;100174.03;;;25.85;46.73
60417;BME280;46263;44.726;10.396;2023-05-23T11:30:02;100176.34;;;25.76;43.32
60417;BME280;46263;44.726;10.396;2023-05-23T11:32:29;100181.81;;;25.96;45.27
60417;BME280;46263;44.726;10.396;2023-05-23T11:34:59;100171.38;;;26.03;44.80
60417;BME280;46263;44.726;10.396;2023-05-23T11:37:24;100173.41;;;26.00;45.10
60417;BME280;46263;44.726;10.396;2023-05-23T11:39:50;100167.25;;;26.06;45.66
60417;BME280;46263;44.726;10.396;2023-05-23T11:42:16;100163.31;;;26.13;46.09
60417;BME280;46263;44.726;10.396;2023-05-23T11:44:41;100164.38;;;26.06;42.54
60417;BME280;46263;44.726;10.396;2023-05-23T11:47:07;100164.59;;;26.10;43.79
60417;BME280;46263;44.726;10.396;2023-05-23T11:49:37;100156.75;;;26.24;43.94
60417;BME280;46263;44.726;10.396;2023-05-23T11:52:03;100161.00;;;26.23;44.38
60417;BME280;46263;44.726;10.396;2023-05-23T11:54:29;100145.78;;;26.34;45.60
60417;BME280;46263;44.726;10.396;2023-05-23T11:56:55;100145.81;;;26.20;44.02
60417;BME280;46263;44.726;10.396;2023-05-23T11:59:23;100145.28;;;26.24;43.42
60417;BME280;46263;44.726;10.396;2023-05-23T12:01:53;100141.03;;;26.25;43.43
60417;BME280;46263;44.726;10.396;2023-05-23T12:04:19;100135.59;;;26.31;43.93
60417;BME280;46263;44.726;10.396;2023-05-23T12:06:48;100142.19;;;26.20;41.71
60417;BME280;46263;44.726;10.396;2023-05-23T12:09:15;100136.25;;;26.16;42.03
60417;BME280;46263;44.726;10.396;2023-05-23T12:11:41;100135.31;;;26.25;42.52
60417;BME280;46263;44.726;10.396;2023-05-23T12:14:08;100124.56;;;26.39;42.89
60417;BME280;46263;44.726;10.396;2023-05-23T12:16:35;100120.75;;;26.48;45.30
60417;BME280;46263;44.726;10.396;2023-05-23T12:19:02;100115.88;;;26.65;43.73
60417;BME280;46263;44.726;10.396;2023-05-23T12:21:44;100114.63;;;26.68;40.41
60417;BME280;46263;44.726;10.396;2023-05-23T12:24:21;100116.81;;;26.70;42.37
60417;BME280;46263;44.726;10.396;2023-05-23T12:29:17;100107.28;;;26.65;43.16
60417;BME280;46263;44.726;10.396;2023-05-23T12:31:43;100111.84;;;26.70;43.58
60417;BME280;46263;44.726;10.396;2023-05-23T12:34:10;100111.69;;;26.82;42.18
60417;BME280;46263;44.726;10.396;2023-05-23T12:36:36;100100.78;;;26.94;42.64
60417;BME280;46263;44.726;10.396;2023-05-23T12:39:03;100106.94;;;27.02;43.97
60417;BME280;46263;44.726;10.396;2023-05-23T12:41:31;100111.38;;;26.89;39.81
60417;BME280;46263;44.726;10.396;2023-05-23T12:43:57;100112.44;;;26.82;40.24
60417;BME280;46263;44.726;10.396;2023-05-23T12:46:23;100100.66;;;26.76;39.79
60417;BME280;46263;44.726;10.396;2023-05-23T12:48:49;100109.22;;;26.90;40.10
60417;BME280;46263;44.726;10.396;2023-05-23T12:51:15;100094.53;;;26.97;42.86
60417;BME280;46263;44.726;10.396;2023-05-23T12:53:41;100101.81;;;27.14;43.58
60417;BME280;46263;44.726;10.396;2023-05-23T12:56:07;100087.16;;;27.08;40.63
60417;BME280;46263;44.726;10.396;2023-05-23T12:58:32;100088.03;;;26.97;40.42
60417;BME280;46263;44.726;10.396;2023-05-23T13:01:00;100081.22;;;27.04;41.03
60417;BME280;46263;44.726;10.396;2023-05-23T13:03:25;100077.72;;;27.05;41.72
60417;BME280;46263;44.726;10.396;2023-05-23T13:05:51;100079.72;;;27.03;40.54
60417;BME280;46263;44.726;10.396;2023-05-23T13:08:18;100078.69;;;26.96;40.75
60417;BME280;46263;44.726;10.396;2023-05-23T13:10:44;100069.75;;;27.04;41.18
60417;BME280;46263;44.726;10.396;2023-05-23T13:13:10;100070.28;;;27.00;40.95
60417;BME280;46263;44.726;10.396;2023-05-23T13:15:35;100076.63;;;27.12;41.97
60417;BME280;46263;44.726;10.396;2023-05-23T13:18:01;100064.66;;;27.33;43.02
60417;BME280;46263;44.726;10.396;2023-05-23T13:20:27;100061.25;;;27.37;40.72